METAR Data
IDs: Format: Raw Decoded Include TAF

Data at: 0613 UTC 24 Sep 2018

KSAZ 240555Z AUTO 12008KT 083V153 10SM OVC075 12/09 A2987 RMK AO2
KSAZ 240535Z AUTO 10007KT 083V153 10SM OVC075 12/10 A2988 RMK AO2
KSAZ 240515Z AUTO 11006KT 10SM BKN075 12/10 A2988 RMK AO2
KSAZ 240455Z AUTO 10009KT 10SM CLR 11/10 A2988 RMK AO2
KSAZ 240435Z AUTO 11007G14KT 093V163 10SM CLR 11/10 A2989 RMK AO2
KSAZ 240415Z AUTO 10008G14KT 10SM CLR 11/10 A2989 RMK AO2
KSAZ 240355Z AUTO 10008KT 10SM SCT009 11/10 A2989 RMK AO2
KSAZ 240335Z AUTO 10007KT 073V133 10SM SCT009 SCT013 11/09 A2990 RMK AO2
KSAZ 240315Z AUTO 10008KT 10SM SCT011 11/09 A2990 RMK AO2
KSAZ 240255Z AUTO 09007KT 10SM SCT011 11/09 A2991 RMK AO2
KSAZ 240235Z AUTO 09007KT 10SM SCT011 11/09 A2991 RMK AO2
KSAZ 240215Z AUTO 09006KT 10SM BKN011 11/09 A2992 RMK AO2
KSAZ 240155Z AUTO 09005KT 10SM BKN011 11/09 A2992 RMK AO2
KSAZ 240135Z AUTO 08005KT 10SM OVC011 11/09 A2992 RMK AO2
KSAZ 240115Z AUTO 08004KT 10SM OVC011 11/09 A2991 RMK AO2
KSAZ 240055Z AUTO 09005G15KT 10SM OVC011 11/09 A2991 RMK AO2
KSAZ 240035Z AUTO 10008G16KT 073V133 10SM OVC013 11/08 A2991 RMK AO2
KSAZ 240015Z AUTO 10005G17KT 10SM OVC013 12/08 A2990 RMK AO2
KSAZ 232355Z AUTO 09011G18KT 10SM OVC013 12/08 A2990 RMK AO2
KSAZ 232335Z AUTO 09013G17KT 10SM OVC015 12/09 A2990 RMK AO2
KSAZ 232315Z AUTO 09010G17KT 10SM BKN015 13/09 A2991 RMK AO2
KSAZ 232255Z AUTO 10007G15KT 10SM BKN017 13/09 A2991 RMK AO2
KSAZ 232235Z AUTO 10009G17KT 10SM BKN017 13/09 A2991 RMK AO2
KSAZ 232215Z AUTO 08009G18KT 10SM BKN017 14/09 A2991 RMK AO2
KSAZ 232155Z AUTO 08009G15KT 053V133 10SM SCT017 15/09 A2992 RMK AO2
KSAZ 232135Z AUTO 10012G18KT 053V113 10SM SCT017 15/09 A2993 RMK AO2
KSAZ 232115Z AUTO 09011G17KT 10SM BKN017 BKN024 15/09 A2994 RMK AO2
KSAZ 232055Z AUTO 08010G17KT 053V113 10SM BKN017 15/09 A2994 RMK AO2
KSAZ 232035Z AUTO 10012G17KT 10SM OVC019 14/09 A2995 RMK AO2
KSAZ 232015Z AUTO 10010G17KT 10SM OVC017 13/09 A2996 RMK AO2
KSAZ 231955Z AUTO 08013G18KT 10SM BKN015 OVC021 13/09 A2996 RMK AO2
KSAZ 231935Z AUTO 07011G15KT 10SM SCT015 OVC021 14/09 A2996 RMK AO2
KSAZ 231915Z AUTO 10009G17KT 10SM OVC019 13/09 A2997 RMK AO2
KSAZ 231855Z AUTO 08008G18KT 063V123 10SM OVC019 14/09 A2999 RMK AO2
KSAZ 231835Z AUTO 08007G19KT 053V113 10SM OVC017 14/09 A2999 RMK AO2
KSAZ 231815Z AUTO 07009G15KT 10SM BKN017 14/09 A3000 RMK AO2
KSAZ 231755Z AUTO 08010KT 10SM OVC017 14/09 A3000 RMK AO2
KSAZ 231735Z AUTO 09009G15KT 10SM OVC017 14/09 A3001 RMK AO2
KSAZ 231715Z AUTO 10010G16KT 10SM OVC017 14/09 A3002 RMK AO2
KSAZ 231655Z AUTO 08010G17KT 10SM OVC019 14/09 A3002 RMK AO2
KSAZ 231635Z AUTO 11009G16KT 10SM BKN019 15/09 A3003 RMK AO2
KSAZ 231615Z AUTO 09007G14KT 053V123 10SM BKN019 15/09 A3004 RMK AO2
KSAZ 231555Z AUTO 08009KT 063V123 10SM BKN017 14/09 A3004 RMK AO2
KSAZ 231535Z AUTO 11004KT 10SM SCT015 14/09 A3005 RMK AO2
KSAZ 231515Z AUTO 09007KT 10SM CLR 13/09 A3004 RMK AO2
KSAZ 231455Z AUTO 10009KT 10SM CLR 13/09 A3004 RMK AO2
KSAZ 231435Z AUTO 11008KT 10SM CLR 12/08 A3004 RMK AO2
KSAZ 231415Z AUTO 10006KT 10SM CLR 12/09 A3003 RMK AO2
KSAZ 231355Z AUTO 10005KT 10SM CLR 11/09 A3003 RMK AO2
KSAZ 231335Z AUTO 09006KT 10SM CLR 09/09 A3003 RMK AO2
KSAZ 231315Z AUTO 10005KT 10SM CLR 09/08 A3002 RMK AO2
KSAZ 231255Z AUTO 00000KT 10SM CLR 08/08 A3002 RMK AO2
KSAZ 231235Z AUTO 00000KT 10SM CLR 08/07 A3001 RMK AO2
KSAZ 231215Z AUTO 10004KT 10SM CLR 08/07 A3000 RMK AO2
KSAZ 231155Z AUTO 10005KT 10SM CLR 08/07 A2999 RMK AO2
KSAZ 231135Z AUTO 11003KT 10SM CLR 08/07 A2999 RMK AO2
KSAZ 231115Z AUTO 00000KT 10SM CLR 08/07 A3001 RMK AO2
KSAZ 231055Z AUTO 09003KT 10SM CLR 08/07 A3000 RMK AO2
KSAZ 231035Z AUTO 07003KT 10SM CLR 08/07 A3000 RMK AO2
KSAZ 231015Z AUTO 06004KT 10SM CLR 08/07 A3001 RMK AO2
KSAZ 230955Z AUTO 07003KT 10SM CLR 08/07 A3001 RMK AO2
KSAZ 230935Z AUTO 06004KT 10SM CLR 08/07 A3001 RMK AO2
KSAZ 230915Z AUTO 06003KT 10SM CLR 08/07 A3001 RMK AO2
KSAZ 230855Z AUTO 03003KT 10SM CLR 08/07 A3001 RMK AO2
KSAZ 230835Z AUTO 01003KT 10SM CLR 08/07 A3000 RMK AO2
KSAZ 230815Z AUTO 00000KT 10SM CLR 08/07 A3000 RMK AO2
KSAZ 230755Z AUTO 00000KT 10SM CLR 08/08 A3000 RMK AO2
KSAZ 230735Z AUTO 00000KT 10SM CLR 09/08 A3000 RMK AO2
KSAZ 230715Z AUTO 15004KT 10SM CLR 08/08 A3000 RMK AO2
KSAZ 230655Z AUTO 13004KT 10SM CLR 08/08 A3000 RMK AO2
KSAZ 230635Z AUTO 00000KT 10SM CLR 08/07 A3001 RMK AO2
KSAZ 230615Z AUTO 00000KT 10SM CLR 08/07 A3000 RMK AO2
KSAZ 230555Z AUTO 00000KT 10SM CLR 09/07 A3001 RMK AO2
KSAZ 230535Z AUTO 13003KT 10SM CLR 09/07 A3001 RMK AO2
KSAZ 230515Z AUTO 13003KT 10SM CLR 09/07 A3001 RMK AO2
KSAZ 230455Z AUTO 13004KT 10SM CLR 10/07 A3000 RMK AO2
KSAZ 230435Z AUTO 12003KT 10SM CLR 10/07 A3001 RMK AO2
KSAZ 230415Z AUTO 12004KT 10SM CLR 10/07 A3001 RMK AO2
KSAZ 230355Z AUTO 11004KT 10SM CLR 10/07 A3001 RMK AO2
KSAZ 230335Z AUTO 11003KT 10SM CLR 11/07 A3002 RMK AO2
KSAZ 230315Z AUTO 11004KT 10SM CLR 11/07 A3001 RMK AO2
KSAZ 230255Z AUTO 11003KT 10SM CLR 11/07 A3002 RMK AO2
KSAZ 230235Z AUTO 10004KT 10SM CLR 11/07 A3002 RMK AO2
KSAZ 230215Z AUTO 10004KT 10SM CLR 11/07 A3002 RMK AO2
KSAZ 230155Z AUTO 09003KT 10SM CLR 12/07 A3002 RMK AO2
KSAZ 230135Z AUTO 09003KT 10SM CLR 12/08 A3002 RMK AO2
KSAZ 230115Z AUTO 00000KT 10SM CLR 12/07 A3002 RMK AO2
KSAZ 230055Z AUTO 00000KT 10SM CLR 13/07 A3002 RMK AO2
KSAZ 230035Z AUTO 00000KT 10SM CLR 13/08 A3002 RMK AO2
KSAZ 230015Z AUTO 00000KT 10SM CLR 14/07 A3001 RMK AO2
KSAZ 222355Z AUTO 00000KT 10SM CLR 16/07 A3001 RMK AO2
KSAZ 222335Z AUTO 14003KT 10SM CLR 16/07 A3000 RMK AO2
KSAZ 222315Z AUTO 16006KT 10SM CLR 16/07 A3000 RMK AO2
KSAZ 222255Z AUTO 15007KT 10SM CLR 17/07 A3000 RMK AO2
KSAZ 222235Z AUTO 17013G17KT 10SM SCT110 18/06 A3000 RMK AO2
KSAZ 222215Z AUTO 18011G16KT 10SM BKN110 18/06 A3001 RMK AO2
KSAZ 222155Z AUTO 20007KT 10SM SCT100 18/06 A3001 RMK AO2
KSAZ 222135Z AUTO 18012KT 10SM BKN100 19/06 A3002 RMK AO2
KSAZ 222115Z AUTO 18013KT 10SM BKN100 18/06 A3003 RMK AO2
KSAZ 222055Z AUTO 18011G19KT 10SM BKN100 17/06 A3003 RMK AO2
KSAZ 222035Z AUTO 18012G16KT 10SM BKN100 17/06 A3004 RMK AO2
KSAZ 222015Z AUTO 18014G18KT 10SM SCT110 17/06 A3005 RMK AO2
KSAZ 221955Z AUTO 19013KT 10SM SCT110 18/06 A3005 RMK AO2
KSAZ 221935Z AUTO 19013G18KT 10SM SCT100 17/06 A3006 RMK AO2
KSAZ 221915Z AUTO 17013G18KT 10SM CLR 17/06 A3007 RMK AO2
KSAZ 221855Z AUTO 19012G20KT 10SM CLR 17/06 A3009 RMK AO2
KSAZ 221835Z AUTO 18012G17KT 10SM CLR 16/06 A3010 RMK AO2
KSAZ 221815Z AUTO 18015G19KT 10SM CLR 16/06 A3010 RMK AO2